Time;durP1;ratioP1;P1;durP2;ratioP2;P2;SDS_P1;SDS_P2;PMS_P1;PMS_P2;Temp;Humidity;BMP_temperature;BMP_pressure;BME280_temperature;BME280_humidity;BME280_pressure;Samples;Min_cycle;Max_cycle;Signal;HPM_P1;HPM_P2
2023/12/26 00:02:07;;;;;;;166.95;96.10;;;4.50;1.00;;;;;;5039603;28;20060;-81
2023/12/26 00:04:35;;;;;;;166.32;94.60;;;4.40;1.00;;;;;;5040395;28;20052;-81
2023/12/26 00:07:03;;;;;;;138.02;81.47;;;4.40;99.90;;;;;;5039516;28;20038;-80
2023/12/26 00:09:32;;;;;;;144.85;86.38;;;4.40;99.90;;;;;;5040026;28;20052;-79
2023/12/26 00:11:59;;;;;;;97.55;58.22;;;4.50;99.90;;;;;;5040008;28;20037;-81
2023/12/26 00:14:26;;;;;;;121.35;70.47;;;4.50;1.00;;;;;;5039673;28;20041;-80
2023/12/26 00:16:54;;;;;;;131.98;75.10;;;4.50;1.00;;;;;;5040874;28;20045;-78
2023/12/26 00:19:21;;;;;;;149.18;85.90;;;4.60;1.00;;;;;;5021715;28;20425;-81
2023/12/26 00:21:49;;;;;;;148.68;85.72;;;4.70;1.00;;;;;;5037740;28;20041;-79
2023/12/26 00:24:16;;;;;;;150.57;85.18;;;4.60;1.00;;;;;;5039991;28;20037;-80
2023/12/26 00:26:45;;;;;;;157.27;89.95;;;4.70;1.00;;;;;;5038496;28;20060;-79
2023/12/26 00:29:13;;;;;;;143.10;82.13;;;4.60;99.90;;;;;;5038891;28;20049;-79
2023/12/26 00:31:41;;;;;;;137.40;81.45;;;4.60;1.00;;;;;;5038977;28;20064;-79
2023/12/26 00:34:09;;;;;;;141.38;80.22;;;4.50;1.00;;;;;;5038846;28;20547;-81
2023/12/26 00:36:37;;;;;;;135.52;79.47;;;4.40;1.00;;;;;;5038426;28;20577;-81
2023/12/26 00:39:04;;;;;;;134.70;81.13;;;4.50;94.60;;;;;;5028413;28;20048;-80
2023/12/26 00:41:32;;;;;;;158.20;91.43;;;4.50;1.00;;;;;;5041661;28;20034;-81
2023/12/26 00:44:02;;;;;;;139.88;81.35;;;4.40;1.00;;;;;;5036911;28;20089;-80
2023/12/26 00:46:29;;;;;;;138.23;77.05;;;4.50;99.90;;;;;;5037561;28;20042;-80
2023/12/26 00:48:57;;;;;;;120.72;66.35;;;4.50;99.90;;;;;;5038684;28;20044;-80
2023/12/26 00:51:25;;;;;;;133.82;76.70;;;4.40;1.00;;;;;;5038053;28;20052;-80
2023/12/26 00:53:53;;;;;;;139.95;82.03;;;4.40;1.00;;;;;;5025391;28;20057;-82
2023/12/26 00:56:21;;;;;;;133.02;78.20;;;4.30;99.90;;;;;;5037153;28;20030;-78
2023/12/26 00:58:48;;;;;;;138.02;78.43;;;4.30;1.00;;;;;;5019629;28;20044;-80
2023/12/26 01:01:19;;;;;;;112.60;65.60;;;4.20;49.40;;;;;;5019098;28;20075;-79
2023/12/26 01:03:47;;;;;;;108.20;62.78;;;4.20;9.10;;;;;;5020208;28;20119;-79
2023/12/26 01:06:14;;;;;;;101.18;57.08;;;4.10;1.00;;;;;;5020952;28;20107;-82
2023/12/26 01:08:42;;;;;;;83.35;49.97;;;4.10;1.00;;;;;;5019992;28;20049;-81
2023/12/26 01:11:09;;;;;;;116.88;67.47;;;4.20;9.20;;;;;;5038616;28;20040;-81
2023/12/26 01:13:37;;;;;;;128.45;70.28;;;4.20;77.20;;;;;;5025654;28;20401;-80
2023/12/26 01:16:06;;;;;;;125.65;74.20;;;4.20;50.00;;;;;;5038754;28;20141;-81
2023/12/26 01:18:35;;;;;;;137.75;77.85;;;4.20;1.00;;;;;;5038093;28;20041;-82
2023/12/26 01:21:03;;;;;;;135.57;74.90;;;4.20;1.00;;;;;;5018448;28;20052;-80
2023/12/26 01:23:30;;;;;;;139.27;76.30;;;4.20;99.90;;;;;;5045346;28;20131;-79
2023/12/26 01:25:57;;;;;;;133.07;71.93;;;4.10;99.90;;;;;;5039150;28;20059;-79
2023/12/26 01:28:25;;;;;;;116.90;66.63;;;4.20;99.90;;;;;;5021906;28;20413;-80
2023/12/26 01:30:52;;;;;;;119.68;68.65;;;4.10;1.00;;;;;;5039194;28;20040;-82
2023/12/26 01:33:19;;;;;;;117.72;69.22;;;4.10;1.00;;;;;;5025937;28;20041;-79
2023/12/26 01:35:49;;;;;;;125.28;71.05;;;4.10;1.00;;;;;;5047006;28;20408;-81
2023/12/26 01:38:17;;;;;;;127.85;70.72;;;4.10;1.00;;;;;;5046127;28;20044;-81
2023/12/26 01:40:45;;;;;;;122.30;70.57;;;4.00;1.00;;;;;;5043231;28;20124;-79
2023/12/26 01:43:12;;;;;;;123.13;68.65;;;4.00;1.00;;;;;;5038990;28;20052;-81
2023/12/26 01:45:40;;;;;;;129.85;69.20;;;4.00;1.00;;;;;;5020530;28;20095;-80
2023/12/26 01:48:09;;;;;;;124.22;69.78;;;4.10;1.00;;;;;;5020674;28;20132;-80
2023/12/26 01:50:37;;;;;;;120.45;70.80;;;4.00;99.90;;;;;;5020726;28;20078;-80
2023/12/26 01:53:06;;;;;;;127.70;72.78;;;4.00;1.00;;;;;;5026579;28;20040;-81
2023/12/26 01:55:33;;;;;;;138.48;77.32;;;4.00;1.00;;;;;;5047302;28;20459;-81
2023/12/26 01:58:02;;;;;;;134.93;75.72;;;4.00;99.90;;;;;;5033027;28;20140;-80
2023/12/26 02:00:29;;;;;;;131.75;76.10;;;4.00;99.90;;;;;;5022344;28;20050;-79
2023/12/26 02:02:57;;;;;;;141.05;77.22;;;3.90;95.30;;;;;;5028937;28;20541;-79
2023/12/26 02:05:24;;;;;;;132.35;76.35;;;3.90;99.90;;;;;;5042766;28;20481;-79
2023/12/26 02:07:53;;;;;;;138.35;78.00;;;3.90;1.00;;;;;;5043389;28;20417;-79
2023/12/26 02:10:22;;;;;;;139.15;77.45;;;3.90;1.00;;;;;;5023659;28;20512;-79
2023/12/26 02:12:49;;;;;;;121.05;66.70;;;3.90;99.90;;;;;;5043506;28;20040;-79
2023/12/26 02:15:18;;;;;;;120.45;68.50;;;3.90;1.00;;;;;;5023802;28;20135;-81
2023/12/26 02:17:46;;;;;;;117.78;64.00;;;3.80;1.00;;;;;;5042052;28;20091;-80
2023/12/26 02:20:14;;;;;;;126.25;68.63;;;3.70;73.10;;;;;;5022978;28;20051;-78
2023/12/26 02:22:41;;;;;;;127.00;70.32;;;3.70;1.00;;;;;;5031290;28;20436;-80
2023/12/26 02:25:12;;;;;;;121.57;65.65;;;3.70;99.90;;;;;;5054920;28;20045;-83
2023/12/26 02:27:40;;;;;;;110.60;62.30;;;3.70;99.90;;;;;;5045849;28;20045;-81
2023/12/26 02:30:09;;;;;;;114.07;61.05;;;3.80;99.90;;;;;;5026060;28;20045;-80
2023/12/26 02:32:40;;;;;;;120.82;65.75;;;3.80;36.10;;;;;;5041258;28;20112;-81
2023/12/26 02:35:08;;;;;;;128.07;70.35;;;3.80;1.00;;;;;;5024841;28;20053;-79
2023/12/26 02:37:37;;;;;;;123.15;68.63;;;3.70;1.00;;;;;;5022623;28;20505;-80
2023/12/26 02:40:05;;;;;;;114.97;64.13;;;3.70;1.00;;;;;;5041256;28;20103;-80
2023/12/26 02:42:35;;;;;;;115.32;64.45;;;3.70;99.90;;;;;;5027780;28;20358;-80
2023/12/26 02:45:03;;;;;;;107.00;62.03;;;3.70;99.90;;;;;;5027326;28;20144;-80
2023/12/26 02:47:30;;;;;;;117.57;65.32;;;3.70;99.90;;;;;;5025919;28;20140;-80
2023/12/26 02:49:57;;;;;;;109.68;63.40;;;3.70;99.90;;;;;;5026539;28;20037;-81
2023/12/26 02:52:25;;;;;;;107.78;60.33;;;3.60;1.00;;;;;;5025657;28;20041;-79
2023/12/26 02:54:53;;;;;;;103.68;56.15;;;3.60;99.90;;;;;;5026510;28;20044;-80
2023/12/26 02:57:20;;;;;;;99.38;55.83;;;3.50;1.00;;;;;;5039638;28;20158;-78
2023/12/26 02:59:50;;;;;;;108.72;60.13;;;3.60;1.00;;;;;;5025001;28;20049;-79
2023/12/26 03:02:19;;;;;;;101.95;55.15;;;3.60;1.00;;;;;;5040837;28;20037;-80
2023/12/26 03:04:47;;;;;;;102.55;56.22;;;3.60;1.00;;;;;;5040840;28;20120;-80
2023/12/26 03:07:14;;;;;;;98.93;54.58;;;3.60;1.00;;;;;;5039961;28;20045;-79
2023/12/26 03:09:41;;;;;;;96.90;55.83;;;3.60;1.00;;;;;;5021886;28;20239;-80
2023/12/26 03:12:09;;;;;;;103.00;58.33;;;3.50;1.00;;;;;;5039189;28;20114;-79
2023/12/26 03:14:36;;;;;;;93.97;50.33;;;3.40;1.00;;;;;;5025535;28;20049;-80
2023/12/26 03:17:07;;;;;;;108.97;57.88;;;3.40;1.00;;;;;;5040064;28;20033;-80
2023/12/26 03:19:34;;;;;;;88.70;52.28;;;3.30;1.00;;;;;;5039155;28;20053;-79
2023/12/26 03:22:03;;;;;;;84.30;52.17;;;3.30;1.00;;;;;;5024917;28;20069;-79
2023/12/26 03:24:31;;;;;;;102.95;55.47;;;3.30;1.00;;;;;;5040792;28;20060;-81
2023/12/26 03:27:00;;;;;;;91.78;51.63;;;3.30;2.50;;;;;;5040028;28;20037;-79
2023/12/26 03:29:28;;;;;;;93.45;53.60;;;3.30;52.40;;;;;;5040719;28;20045;-80
2023/12/26 03:31:55;;;;;;;97.28;55.28;;;3.30;39.70;;;;;;5026839;28;20562;-79
2023/12/26 03:34:24;;;;;;;98.93;54.42;;;3.40;70.00;;;;;;5026682;28;20094;-81
2023/12/26 03:36:52;;;;;;;95.93;53.38;;;3.40;1.00;;;;;;5013257;28;20653;-78
2023/12/26 03:39:20;;;;;;;89.78;50.85;;;3.40;1.00;;;;;;5022858;28;20045;-80
2023/12/26 03:41:49;;;;;;;93.32;54.05;;;3.40;1.00;;;;;;5024688;28;20049;-82
2023/12/26 03:44:16;;;;;;;100.50;57.60;;;3.30;99.90;;;;;;5040544;28;20488;-81
2023/12/26 03:46:44;;;;;;;118.32;60.65;;;3.30;99.90;;;;;;5048293;28;20080;-81
2023/12/26 03:49:12;;;;;;;103.85;59.30;;;3.40;1.00;;;;;;5030604;28;20064;-80
2023/12/26 03:51:41;;;;;;;94.53;55.28;;;3.40;1.00;;;;;;5024272;28;20045;-81
2023/12/26 03:54:08;;;;;;;94.38;52.90;;;3.30;1.00;;;;;;5022003;28;20905;-81
2023/12/26 03:56:36;;;;;;;83.03;47.83;;;3.30;1.00;;;;;;5027542;28;20126;-80
2023/12/26 03:59:04;;;;;;;89.47;51.53;;;3.30;99.90;;;;;;5040569;28;20041;-80
2023/12/26 04:01:31;;;;;;;85.05;49.25;;;3.40;99.90;;;;;;5019911;28;20050;-80
2023/12/26 04:03:59;;;;;;;90.25;49.60;;;3.40;1.70;;;;;;5009832;28;20104;-80
2023/12/26 04:06:27;;;;;;;105.10;57.58;;;3.30;1.00;;;;;;5030110;28;20049;-79
2023/12/26 04:08:56;;;;;;;105.60;59.83;;;3.30;99.90;;;;;;5029578;28;20045;-79
2023/12/26 04:11:24;;;;;;;98.85;57.50;;;3.30;1.00;;;;;;5020681;28;20052;-81
2023/12/26 04:13:51;;;;;;;98.25;54.40;;;3.20;1.00;;;;;;5025640;28;20103;-79
2023/12/26 04:16:19;;;;;;;87.95;50.25;;;3.20;99.90;;;;;;5025390;28;20396;-81
2023/12/26 04:18:46;;;;;;;85.18;47.88;;;3.20;99.90;;;;;;5027751;28;20060;-81
2023/12/26 04:21:14;;;;;;;77.82;45.85;;;3.20;99.90;;;;;;5028978;28;20040;-79
2023/12/26 04:23:42;;;;;;;84.22;48.40;;;3.10;1.00;;;;;;5029317;28;20051;-79
2023/12/26 04:26:11;;;;;;;91.70;53.03;;;3.10;1.00;;;;;;5026137;28;20053;-81
2023/12/26 04:28:38;;;;;;;96.45;57.83;;;3.00;99.90;;;;;;5025666;28;20072;-80
2023/12/26 04:31:06;;;;;;;101.35;57.58;;;2.80;99.90;;;;;;5029395;28;20040;-80
2023/12/26 04:33:34;;;;;;;93.07;55.58;;;2.70;1.00;;;;;;5025198;28;20045;-80
2023/12/26 04:36:01;;;;;;;101.28;57.85;;;2.80;1.00;;;;;;5026007;28;20536;-81
2023/12/26 04:38:29;;;;;;;93.95;57.58;;;2.80;39.00;;;;;;5023036;28;20087;-81
2023/12/26 04:40:57;;;;;;;101.05;57.83;;;2.90;60.40;;;;;;5054864;28;20538;-79
2023/12/26 04:43:25;;;;;;;99.00;57.28;;;2.90;1.00;;;;;;5026997;28;20461;-79
2023/12/26 04:45:53;;;;;;;98.88;59.63;;;2.90;1.00;;;;;;5020133;28;20067;-78
2023/12/26 04:48:22;;;;;;;92.63;55.30;;;3.00;1.00;;;;;;5038894;28;20053;-80
2023/12/26 04:50:49;;;;;;;86.25;50.53;;;2.80;1.00;;;;;;5036971;28;20068;-79
2023/12/26 04:53:17;;;;;;;76.55;48.03;;;2.80;1.00;;;;;;5018835;28;20095;-79
2023/12/26 04:55:46;;;;;;;67.85;43.08;;;2.70;6.00;;;;;;5020172;28;20052;-78
2023/12/26 04:58:13;;;;;;;71.72;42.13;;;2.80;99.90;;;;;;5023736;28;20057;-79
2023/12/26 05:00:44;;;;;;;82.45;47.28;;;2.80;99.90;;;;;;5026993;28;20562;-80
2023/12/26 05:03:11;;;;;;;78.30;45.22;;;2.90;99.90;;;;;;5020374;28;20057;-78
2023/12/26 05:05:39;;;;;;;81.32;50.03;;;2.90;99.90;;;;;;5022277;28;20046;-78
2023/12/26 05:08:07;;;;;;;93.07;56.47;;;2.90;99.90;;;;;;5028663;28;20053;-78
2023/12/26 05:10:34;;;;;;;91.32;53.08;;;2.90;99.90;;;;;;5030406;28;20061;-79
2023/12/26 05:13:02;;;;;;;90.25;52.58;;;2.90;86.20;;;;;;5031620;28;20083;-80
2023/12/26 05:15:30;;;;;;;81.88;46.63;;;2.80;1.00;;;;;;5031269;28;20049;-80
2023/12/26 05:17:59;;;;;;;87.13;53.13;;;2.80;1.00;;;;;;5023671;28;20042;-80
2023/12/26 05:20:26;;;;;;;85.70;48.25;;;2.80;1.00;;;;;;5039134;28;20404;-80
2023/12/26 05:22:54;;;;;;;76.38;42.92;;;2.70;1.00;;;;;;5020227;28;20103;-78
2023/12/26 05:25:24;;;;;;;79.45;44.40;;;2.80;91.60;;;;;;5022699;28;20049;-79
2023/12/26 05:27:52;;;;;;;79.63;43.83;;;2.80;99.90;;;;;;5019319;28;20045;-78
2023/12/26 05:30:20;;;;;;;76.25;42.00;;;2.80;43.90;;;;;;5032673;28;20059;-78
2023/12/26 05:32:49;;;;;;;80.20;46.40;;;2.80;1.00;;;;;;5052897;28;20496;-79
2023/12/26 05:35:20;;;;;;;77.20;40.95;;;2.80;35.50;;;;;;5028032;28;20044;-78
2023/12/26 05:37:48;;;;;;;76.85;44.25;;;2.90;52.50;;;;;;5044254;28;20037;-78
2023/12/26 05:40:16;;;;;;;97.65;51.13;;;2.90;1.00;;;;;;5023692;28;20045;-78
2023/12/26 05:42:44;;;;;;;108.15;60.35;;;2.90;1.00;;;;;;5024617;28;20049;-80
2023/12/26 05:45:12;;;;;;;96.85;54.70;;;2.80;1.00;;;;;;5021889;28;20096;-79
2023/12/26 05:47:40;;;;;;;96.65;53.58;;;2.80;1.00;;;;;;5029385;28;20477;-79
2023/12/26 05:50:09;;;;;;;94.45;52.38;;;2.80;1.00;;;;;;5032464;28;20072;-80
2023/12/26 05:52:38;;;;;;;87.13;47.70;;;2.80;1.00;;;;;;5023479;28;20038;-79
2023/12/26 05:55:06;;;;;;;85.25;49.80;;;2.80;1.00;;;;;;5026023;28;20071;-78
2023/12/26 05:57:34;;;;;;;85.15;52.30;;;2.80;7.10;;;;;;5016910;28;20138;-78
2023/12/26 06:00:02;;;;;;;99.50;55.58;;;2.80;1.00;;;;;;5028436;28;20061;-77
2023/12/26 06:02:31;;;;;;;91.18;55.70;;;2.80;1.00;;;;;;5044993;28;20050;-78
2023/12/26 06:04:58;;;;;;;88.05;51.10;;;2.60;1.00;;;;;;5018955;28;20568;-80
2023/12/26 06:07:26;;;;;;;106.35;58.40;;;2.50;64.80;;;;;;5040754;28;20049;-79
2023/12/26 06:09:55;;;;;;;90.07;54.35;;;2.50;99.90;;;;;;5021888;28;20128;-79
2023/12/26 06:12:22;;;;;;;95.03;55.85;;;2.50;99.90;;;;;;5024246;28;20072;-77
2023/12/26 06:14:50;;;;;;;87.93;51.65;;;2.60;99.90;;;;;;5029400;28;20492;-78
2023/12/26 06:17:19;;;;;;;95.38;56.58;;;2.60;99.90;;;;;;5022285;28;20081;-79
2023/12/26 06:19:46;;;;;;;107.93;62.38;;;2.70;99.90;;;;;;5022684;28;20045;-79
2023/12/26 06:22:14;;;;;;;124.03;71.45;;;2.70;99.90;;;;;;5030590;28;20041;-79
2023/12/26 06:24:41;;;;;;;119.20;69.82;;;2.70;99.90;;;;;;5031757;28;20095;-79
2023/12/26 06:27:10;;;;;;;106.60;61.60;;;2.70;99.90;;;;;;5030548;28;20051;-77
2023/12/26 06:29:38;;;;;;;123.70;67.28;;;2.70;97.90;;;;;;5043296;28;20041;-78
2023/12/26 06:32:06;;;;;;;107.03;61.30;;;2.60;99.90;;;;;;5020893;28;20091;-80
2023/12/26 06:34:34;;;;;;;112.90;67.22;;;2.70;91.80;;;;;;5022619;28;20081;-78
2023/12/26 06:37:01;;;;;;;111.50;68.43;;;2.70;84.50;;;;;;5022525;28;20041;-80
2023/12/26 06:39:29;;;;;;;134.30;78.28;;;2.70;1.00;;;;;;5041800;28;20044;-79
2023/12/26 06:41:56;;;;;;;127.10;77.22;;;2.80;1.00;;;;;;5028983;28;20065;-78
2023/12/26 06:44:25;;;;;;;134.50;78.03;;;2.80;1.00;;;;;;5024316;28;20374;-80
2023/12/26 06:46:56;;;;;;;137.00;76.15;;;2.80;1.00;;;;;;5016157;28;20190;-80
2023/12/26 06:49:23;;;;;;;144.88;80.78;;;2.80;1.00;;;;;;5024620;28;20045;-79
2023/12/26 06:51:51;;;;;;;174.57;91.50;;;2.80;1.00;;;;;;5017168;28;20047;-80
2023/12/26 06:54:21;;;;;;;204.02;113.20;;;2.80;1.00;;;;;;5014817;28;20397;-78
2023/12/26 06:56:50;;;;;;;206.07;121.47;;;2.90;1.00;;;;;;5040224;28;20033;-80
2023/12/26 06:59:18;;;;;;;211.70;118.93;;;2.90;1.00;;;;;;5026599;28;20575;-81
2023/12/26 07:01:50;;;;;;;230.63;129.88;;;2.90;99.90;;;;;;5023859;28;20037;-79
2023/12/26 07:04:17;;;;;;;198.70;113.25;;;2.90;99.90;;;;;;5025483;28;20072;-79
2023/12/26 07:06:45;;;;;;;163.93;91.05;;;2.90;99.90;;;;;;5024307;28;20095;-81
2023/12/26 07:09:12;;;;;;;160.25;87.70;;;2.90;99.90;;;;;;5041678;28;20069;-80
2023/12/26 07:11:40;;;;;;;134.70;79.20;;;2.90;99.90;;;;;;5040823;28;20064;-80
2023/12/26 07:14:07;;;;;;;164.05;94.63;;;2.90;1.00;;;;;;5039608;28;20036;-81
2023/12/26 07:16:35;;;;;;;170.35;93.75;;;3.00;1.00;;;;;;5042587;28;20072;-81
2023/12/26 07:19:04;;;;;;;179.10;102.88;;;3.10;1.00;;;;;;5024869;28;20071;-80
2023/12/26 07:21:31;;;;;;;183.10;105.10;;;3.10;1.00;;;;;;5041708;28;20520;-81
2023/12/26 07:23:59;;;;;;;154.27;88.45;;;3.20;1.00;;;;;;5046160;28;20072;-80
2023/12/26 07:26:26;;;;;;;151.07;87.82;;;3.30;99.90;;;;;;5042461;28;20061;-78
2023/12/26 07:28:54;;;;;;;149.93;82.82;;;3.40;99.90;;;;;;5042844;28;20120;-78
2023/12/26 07:31:22;;;;;;;142.38;81.38;;;3.60;1.00;;;;;;5042665;28;20048;-80
2023/12/26 07:33:51;;;;;;;198.43;107.70;;;3.80;99.90;;;;;;5040302;28;20681;-80
2023/12/26 07:36:21;;;;;;;198.43;104.28;;;4.00;99.90;;;;;;5040523;28;20505;-78
2023/12/26 07:38:49;;;;;;;198.80;100.50;;;4.20;99.90;;;;;;5038851;28;20063;-78
2023/12/26 07:41:16;;;;;;;181.95;94.88;;;4.20;99.90;;;;;;5029619;28;20103;-78
2023/12/26 07:43:44;;;;;;;198.05;103.40;;;4.30;1.00;;;;;;5048940;28;20047;-80
2023/12/26 07:46:11;;;;;;;191.65;99.60;;;4.40;1.00;;;;;;5047401;28;20041;-79
2023/12/26 07:48:39;;;;;;;204.23;106.63;;;4.40;1.00;;;;;;5043597;28;20038;-78
2023/12/26 07:51:09;;;;;;;201.70;109.22;;;4.50;1.00;;;;;;5040138;28;20049;-80
2023/12/26 07:53:38;;;;;;;196.02;105.10;;;4.60;99.90;;;;;;5039888;28;20427;-79
2023/12/26 07:56:06;;;;;;;183.52;101.07;;;4.70;1.00;;;;;;5038734;28;20121;-81
2023/12/26 07:58:34;;;;;;;174.88;96.40;;;4.80;1.00;;;;;;5025750;28;20079;-80
2023/12/26 08:01:02;;;;;;;177.77;98.55;;;4.80;1.00;;;;;;5022501;28;20050;-80
2023/12/26 08:03:30;;;;;;;194.60;100.05;;;4.90;1.00;;;;;;5041683;28;20111;-80
2023/12/26 08:05:57;;;;;;;184.15;102.57;;;4.90;99.90;;;;;;5043191;28;20076;-81
2023/12/26 08:08:25;;;;;;;156.35;87.55;;;4.90;99.90;;;;;;5043376;28;20086;-78
2023/12/26 08:10:53;;;;;;;179.18;98.72;;;5.00;1.00;;;;;;5039419;28;20072;-79
2023/12/26 08:13:21;;;;;;;157.77;83.22;;;5.10;1.00;;;;;;5039894;28;20125;-80
2023/12/26 08:15:49;;;;;;;154.07;87.00;;;5.10;99.90;;;;;;5039143;28;20040;-80
2023/12/26 08:18:16;;;;;;;124.13;69.10;;;5.20;99.90;;;;;;5039009;28;20060;-78
2023/12/26 08:20:44;;;;;;;142.82;77.20;;;5.20;1.00;;;;;;5039024;28;20068;-79
2023/12/26 08:23:11;;;;;;;125.63;74.03;;;5.30;99.90;;;;;;5038729;28;20547;-80
2023/12/26 08:25:39;;;;;;;129.77;74.50;;;5.40;1.00;;;;;;5040225;28;20045;-79
2023/12/26 08:28:08;;;;;;;136.20;78.53;;;5.50;1.00;;;;;;5040638;28;20049;-80
2023/12/26 08:30:36;;;;;;;158.77;87.10;;;5.70;1.00;;;;;;5042381;28;20119;-85
2023/12/26 08:33:07;;;;;;;161.55;88.13;;;5.80;99.90;;;;;;5033293;28;20068;-82
2023/12/26 08:35:35;;;;;;;148.10;86.28;;;5.90;1.00;;;;;;5023109;28;20060;-80
2023/12/26 08:38:02;;;;;;;140.55;84.43;;;5.90;1.00;;;;;;5038231;28;20064;-81
2023/12/26 08:40:30;;;;;;;142.40;82.95;;;6.00;99.90;;;;;;5040590;28;20045;-81
2023/12/26 08:42:57;;;;;;;143.98;85.82;;;6.10;1.00;;;;;;5042537;28;20114;-81
2023/12/26 08:45:26;;;;;;;149.95;84.38;;;6.20;1.00;;;;;;5037702;28;20068;-81
2023/12/26 08:47:56;;;;;;;129.15;76.88;;;6.20;1.00;;;;;;5039705;28;20162;-81
2023/12/26 08:50:23;;;;;;;113.13;67.53;;;6.30;1.00;;;;;;5041739;28;20041;-82
2023/12/26 08:52:51;;;;;;;101.15;58.72;;;6.40;1.00;;;;;;5040288;28;20045;-83
2023/12/26 08:55:19;;;;;;;118.90;66.55;;;6.40;1.00;;;;;;5039366;28;20056;-82
2023/12/26 08:57:46;;;;;;;94.35;54.22;;;6.60;1.00;;;;;;5039781;28;20064;-83
2023/12/26 09:00:15;;;;;;;106.60;65.80;;;6.80;99.90;;;;;;5039762;28;20045;-81
2023/12/26 09:02:44;;;;;;;95.30;54.95;;;7.00;1.00;;;;;;5038903;28;20070;-81
2023/12/26 09:05:12;;;;;;;81.78;43.63;;;7.10;1.00;;;;;;5024565;28;20451;-80
2023/12/26 09:07:40;;;;;;;100.80;56.42;;;7.20;1.00;;;;;;5038363;28;20049;-82
2023/12/26 09:10:08;;;;;;;92.50;54.72;;;7.40;99.90;;;;;;5026000;28;20045;-79
2023/12/26 09:12:40;;;;;;;95.13;55.55;;;7.60;17.50;;;;;;5039992;28;20038;-81
2023/12/26 09:15:36;;;;;;;92.28;55.20;;;7.70;1.00;;;;;;5007682;28;20119;-83
2023/12/26 09:18:06;;;;;;;84.70;45.95;;;7.80;1.00;;;;;;5040778;28;20112;-81
2023/12/26 09:20:33;;;;;;;93.78;51.97;;;7.90;99.90;;;;;;5039489;28;20131;-80
2023/12/26 09:23:53;;;;;;;86.38;52.25;;;8.00;99.90;;;;;;5039134;28;20655;-83
2023/12/26 09:26:22;;;;;;;63.25;39.53;;;8.10;1.00;;;;;;5039131;28;20489;-80
2023/12/26 09:28:50;;;;;;;77.20;44.90;;;8.20;1.00;;;;;;5038299;28;20592;-81
2023/12/26 09:31:18;;;;;;;84.10;45.88;;;8.40;1.00;;;;;;5038636;28;20029;-82
2023/12/26 09:33:48;;;;;;;83.50;48.55;;;8.50;99.90;;;;;;5038553;28;20544;-82
2023/12/26 09:36:16;;;;;;;82.20;48.90;;;8.60;99.90;;;;;;5037276;28;20128;-82
2023/12/26 09:38:43;;;;;;;87.60;48.33;;;8.90;99.90;;;;;;5025460;28;20041;-80
2023/12/26 09:44:52;;;;;;;88.05;49.33;;;9.10;1.00;;;;;;5038352;28;20522;-82
2023/12/26 09:47:22;;;;;;;81.22;50.15;;;9.30;99.90;;;;;;5038349;28;20140;-82
2023/12/26 09:49:51;;;;;;;99.07;55.75;;;9.30;99.90;;;;;;5037863;28;20033;-82
2023/12/26 09:52:19;;;;;;;90.32;54.63;;;9.50;32.60;;;;;;5038913;28;20075;-81
2023/12/26 09:54:48;;;;;;;86.55;51.50;;;9.60;1.00;;;;;;5038090;28;20046;-82
2023/12/26 09:57:16;;;;;;;84.20;48.17;;;9.70;1.00;;;;;;5024621;28;20080;-80
2023/12/26 09:59:44;;;;;;;80.93;47.95;;;9.80;1.00;;;;;;5038757;28;20120;-80
2023/12/26 10:02:13;;;;;;;80.30;49.20;;;10.00;1.00;;;;;;5037190;28;20053;-81
2023/12/26 10:04:41;;;;;;;81.93;47.22;;;10.20;99.90;;;;;;5042703;28;20041;-80
2023/12/26 10:07:10;;;;;;;83.65;47.90;;;10.30;99.90;;;;;;5052124;23;20049;-83
2023/12/26 10:09:38;;;;;;;74.55;45.47;;;10.40;1.00;;;;;;5033038;28;20045;-83
2023/12/26 10:12:06;;;;;;;84.53;45.72;;;10.60;1.00;;;;;;5028451;28;20053;-83
2023/12/26 10:14:33;;;;;;;80.85;43.60;;;10.70;1.00;;;;;;5037283;28;20531;-83
2023/12/26 10:17:01;;;;;;;71.07;40.95;;;10.80;1.00;;;;;;5042376;28;20140;-84
2023/12/26 10:19:29;;;;;;;75.65;41.75;;;10.90;1.00;;;;;;5045944;28;20542;-83
2023/12/26 10:21:56;;;;;;;78.53;45.58;;;11.10;99.90;;;;;;5031995;28;20050;-83
2023/12/26 10:24:26;;;;;;;67.38;41.17;;;11.30;99.90;;;;;;5037320;28;20079;-84
2023/12/26 10:26:54;;;;;;;66.28;40.85;;;11.30;99.90;;;;;;5024395;28;20084;-84
2023/12/26 10:29:22;;;;;;;63.22;37.13;;;11.50;99.90;;;;;;5050336;28;20049;-83
2023/12/26 10:31:49;;;;;;;71.03;42.38;;;11.60;99.90;;;;;;5035828;28;20049;-84
2023/12/26 10:34:19;;;;;;;51.03;28.67;;;11.70;99.90;;;;;;5025350;28;20183;-85
2023/12/26 10:36:49;;;;;;;54.33;30.55;;;11.70;99.90;;;;;;5025070;28;20041;-84
2023/12/26 10:39:18;;;;;;;47.17;26.70;;;11.80;65.30;;;;;;5023189;28;20103;-83
2023/12/26 10:41:50;;;;;;;56.47;29.77;;;11.90;20.50;;;;;;5033638;28;20041;-83
2023/12/26 10:44:19;;;;;;;47.10;27.10;;;12.10;1.00;;;;;;5027399;28;20076;-83
2023/12/26 10:46:49;;;;;;;53.22;31.02;;;12.10;1.00;;;;;;5035391;28;20072;-83
2023/12/26 10:49:22;;;;;;;56.75;28.80;;;12.30;1.00;;;;;;5038249;28;20052;-82
2023/12/26 10:51:52;;;;;;;49.45;28.33;;;12.30;1.00;;;;;;5029229;28;20488;-84
2023/12/26 10:54:24;;;;;;;48.67;26.77;;;12.40;1.00;;;;;;5025444;28;20059;-84
2023/12/26 10:56:53;;;;;;;48.63;25.25;;;12.60;1.00;;;;;;5023975;28;20386;-83
2023/12/26 10:59:21;;;;;;;51.13;25.17;;;12.60;1.00;;;;;;5026298;28;20045;-84
2023/12/26 11:01:49;;;;;;;46.45;25.45;;;12.70;1.00;;;;;;5022827;28;20172;-82
2023/12/26 11:04:16;;;;;;;44.90;25.35;;;12.80;1.00;;;;;;5033116;28;20045;-81
2023/12/26 11:06:44;;;;;;;47.22;25.55;;;13.00;1.00;;;;;;5037690;28;20120;-84
2023/12/26 11:09:11;;;;;;;44.67;25.80;;;13.00;1.00;;;;;;5023430;28;20076;-84
2023/12/26 11:11:40;;;;;;;43.30;25.10;;;13.00;1.00;;;;;;5022598;28;20042;-84
2023/12/26 11:14:11;;;;;;;44.47;25.85;;;13.20;1.00;;;;;;5051321;28;20480;-85
2023/12/26 11:16:37;;;;;;;49.65;25.60;;;13.30;1.00;;;;;;5058985;28;20759;-82
2023/12/26 11:19:04;;;;;;;48.33;26.23;;;13.30;1.00;;;;;;5028483;28;20038;-83
2023/12/26 11:21:33;;;;;;;40.38;23.88;;;13.30;1.00;;;;;;5033421;28;20046;-83
2023/12/26 11:24:01;;;;;;;42.42;24.52;;;13.50;1.00;;;;;;5023323;28;20048;-84
2023/12/26 11:26:33;;;;;;;43.42;24.10;;;13.50;1.00;;;;;;5047187;28;20041;-84
2023/12/26 11:29:05;;;;;;;45.58;27.65;;;13.60;1.00;;;;;;5021345;28;20041;-83
2023/12/26 11:31:37;;;;;;;49.75;25.52;;;13.70;1.00;;;;;;5032822;28;20465;-82
2023/12/26 11:34:07;;;;;;;42.63;24.92;;;13.80;1.00;;;;;;5047853;28;20425;-83
2023/12/26 11:36:34;;;;;;;41.92;20.25;;;13.80;1.00;;;;;;5033521;28;20441;-83
2023/12/26 11:39:01;;;;;;;43.78;24.77;;;13.90;1.00;;;;;;5051128;28;20053;-84
2023/12/26 11:41:28;;;;;;;36.17;22.20;;;13.90;1.00;;;;;;5050393;28;20133;-84
2023/12/26 11:43:56;;;;;;;37.85;22.10;;;14.00;1.00;;;;;;5027349;28;20052;-83
2023/12/26 11:46:24;;;;;;;45.53;22.10;;;14.00;1.00;;;;;;5050111;28;20120;-83
2023/12/26 11:48:52;;;;;;;37.58;18.95;;;14.10;1.00;;;;;;5033352;28;20045;-84
2023/12/26 11:51:19;;;;;;;32.65;16.75;;;14.20;1.00;;;;;;5059011;28;20129;-83
2023/12/26 11:53:51;;;;;;;35.00;17.63;;;14.30;1.00;;;;;;5032609;28;20045;-83
2023/12/26 11:56:19;;;;;;;31.35;16.52;;;14.40;1.00;;;;;;5036490;28;20095;-83
2023/12/26 11:58:45;;;;;;;27.60;14.63;;;14.50;1.00;;;;;;5051160;28;20152;-83
2023/12/26 12:01:13;;;;;;;33.38;17.05;;;14.50;1.00;;;;;;5051909;28;20045;-82
2023/12/26 12:03:40;;;;;;;28.85;14.63;;;14.50;1.00;;;;;;5027906;28;20055;-82
2023/12/26 12:06:17;;;;;;;29.15;14.20;;;14.60;1.00;;;;;;5021330;28;20092;-83
2023/12/26 12:09:05;;;;;;;34.08;16.90;;;14.50;1.00;;;;;;5026493;28;20064;-82
2023/12/26 12:11:33;;;;;;;23.35;12.25;;;14.60;1.00;;;;;;5034550;28;20046;-83
2023/12/26 12:14:00;;;;;;;22.45;11.65;;;14.60;1.00;;;;;;5023179;28;20049;-83
2023/12/26 12:16:26;;;;;;;23.77;11.48;;;14.70;1.00;;;;;;5037739;28;20041;-83
2023/12/26 12:19:00;;;;;;;24.15;12.65;;;14.70;1.00;;;;;;5019936;28;20261;-83
2023/12/26 12:21:36;;;;;;;30.02;15.23;;;14.70;1.00;;;;;;5024335;28;20052;-84
2023/12/26 12:24:06;;;;;;;30.30;15.98;;;14.80;1.00;;;;;;5024806;28;20072;-83
2023/12/26 12:27:01;;;;;;;33.58;16.23;;;14.90;1.00;;;;;;5023836;28;20136;-83
2023/12/26 12:29:59;;;;;;;29.08;15.13;;;14.90;1.00;;;;;;5025449;28;20056;-82
2023/12/26 12:32:36;;;;;;;26.90;14.02;;;15.00;1.00;;;;;;5032008;28;20045;-84
2023/12/26 12:35:23;;;;;;;28.08;14.80;;;15.00;1.00;;;;;;5032199;28;20033;-82
2023/12/26 12:37:51;;;;;;;32.42;18.25;;;15.00;1.00;;;;;;5045815;28;20037;-81
2023/12/26 12:40:22;;;;;;;88.75;53.83;;;15.10;1.00;;;;;;5024972;28;20113;-80
2023/12/26 12:42:48;;;;;;;45.85;27.75;;;15.10;1.00;;;;;;5032889;28;20037;-81
2023/12/26 12:45:15;;;;;;;35.97;19.05;;;15.20;1.00;;;;;;5032960;28;20045;-79
2023/12/26 12:47:43;;;;;;;27.17;14.68;;;15.20;1.00;;;;;;5031758;28;20037;-78